Hauptseite
METAR-TAF:

METAR-TAF

Flughäfen :

London City Airport

London, England

Breite: 51-30N, Länge: 000-03E, Höhe: 5 m

Beobachtung

Neuester Wetterbericht von vor 35 Minuten, um 04:20 UTC
Windstille
Temperatur 5°C
Luftfeuchtigkeit 93%
Luftdruck 1009 hPa
Sichtweite: 8000 m

METAR: EGLC 170420Z AUTO 00000KT 8000 NCD 05/04 Q1009

Zeit: 04:55 (04:55 UTC)

Prognose

Neuester Wetterbericht von vor 3 Stunden und 4 Minuten, um 01:51 UTC
Gültige Prognose vom 17 um 03 UTC bis 17 um 12 UTC
Wind 5 kt aus Ost/Nordost
Sichtweite 10 km oder mehr
Aufgelockert bewölkt in der Höhe von 4000 ft
Zeitweise
vom 17 um 03 UTC bis 17 um 09 UTC
Sichtweite: 8000 m
Wahrscheinlichkeit 30% :
Zeitweise
vom 17 um 03 UTC bis 17 um 09 UTC
Sichtweite: 1400 m
feuchter Dunst

TAF: EGLC 170151Z 1703/1712 06005KT 9999 SCT040 TEMPO 1703/1709 8000 PROB30 TEMPO 1703/1709 1400 BR

Wetterbeobachtungen und Prognosen von mehr als 4000 Flughäfen (METAR und TAF Bericht).

Die verfügbaren Stationen werden durch gelbe und rote Markierungen auf der Karte dargestellt.

Führen Sie die Maus auf sie, um den Namen der Station zu sehen.

Darauf klicken, um die Beobachtung von Wetterbeobachtungen und Prognosen zu sehen.

Um die Karte zu ändern : klicken Sie auf den grünen Tasten mit einem schwarzen Kreuz Zum Vergrößern, auf den grünen Button mit einem Gedankenstrich zu verkleinern, oder auf die grünen Pfeile für benachbarte Karten.


METAR-TAF: